createdAt,value
2023-05-19T00:00:00.705Z,16.07
2023-05-19T00:05:00.470Z,16.07
2023-05-19T00:10:00.748Z,16.07
2023-05-19T00:15:00.503Z,16.07
2023-05-19T00:20:00.661Z,16.07
2023-05-19T00:25:03.906Z,16.28
2023-05-19T00:30:00.587Z,16.28
2023-05-19T00:35:00.698Z,16.28
2023-05-19T00:40:00.916Z,16.28
2023-05-19T00:45:00.515Z,16.28
2023-05-19T00:50:00.639Z,16.13
2023-05-19T00:55:01.231Z,16.13
2023-05-19T01:00:00.650Z,16.13
2023-05-19T01:05:00.643Z,16.13
2023-05-19T01:10:01.008Z,16.13
2023-05-19T01:15:00.577Z,16.13
2023-05-19T01:20:00.686Z,16.21
2023-05-19T01:25:03.738Z,16.01
2023-05-19T01:30:00.648Z,16.01
2023-05-19T01:35:00.899Z,16.01
2023-05-19T01:40:00.915Z,15.69
2023-05-19T01:45:00.583Z,15.69
2023-05-19T01:50:00.623Z,15.69
2023-05-19T01:55:00.821Z,15.69
2023-05-19T02:00:00.564Z,15.69
2023-05-19T02:05:00.582Z,15.69
2023-05-19T02:10:01.237Z,15.69
2023-05-19T02:15:00.517Z,15.53
2023-05-19T02:20:00.662Z,15.8
2023-05-19T02:25:03.585Z,15.8
2023-05-19T02:30:00.528Z,15.59
2023-05-19T02:35:00.660Z,15.59
2023-05-19T02:40:01.851Z,15.59
2023-05-19T02:45:00.771Z,15.08
2023-05-19T02:50:00.906Z,15.08
2023-05-19T02:55:00.778Z,15.08
2023-05-19T03:00:00.692Z,15.08
2023-05-19T03:05:00.530Z,14.86
2023-05-19T03:10:00.651Z,14.89
2023-05-19T03:15:00.484Z,15
2023-05-19T03:20:00.897Z,15
2023-05-19T03:25:04.432Z,14.98
2023-05-19T03:30:03.270Z,14.77
2023-05-19T03:35:01.146Z,14.77
2023-05-19T03:40:00.581Z,14.77
2023-05-19T03:45:00.636Z,14.77
2023-05-19T03:50:00.639Z,14.77
2023-05-19T03:55:00.765Z,14.77
2023-05-19T04:00:00.805Z,14.58
2023-05-19T04:05:01.053Z,14.58
2023-05-19T04:10:00.879Z,15.1
2023-05-19T04:15:00.486Z,15.1
2023-05-19T04:20:00.684Z,15.1
2023-05-19T04:25:06.228Z,15.1
2023-05-19T04:30:00.484Z,15.1
2023-05-19T04:35:02.816Z,15.1
2023-05-19T04:40:00.551Z,15.1
2023-05-19T04:45:00.554Z,15.1
2023-05-19T04:50:05.784Z,15.1
2023-05-19T04:55:00.776Z,15.48
2023-05-19T05:00:00.627Z,16.01
2023-05-19T05:05:00.646Z,16.01
2023-05-19T05:10:00.672Z,16.01
2023-05-19T05:15:00.450Z,16.01
2023-05-19T05:20:00.595Z,16.01
2023-05-19T05:25:02.894Z,16.01
2023-05-19T05:30:00.462Z,16.22
2023-05-19T05:35:00.568Z,16.76
2023-05-19T05:40:00.574Z,16.76
2023-05-19T05:45:00.535Z,16.76
2023-05-19T05:50:00.618Z,16.76
2023-05-19T05:55:00.636Z,16.76
2023-05-19T06:00:00.991Z,17.28
2023-05-19T06:05:00.629Z,17.81
2023-05-19T06:10:00.744Z,17.81
2023-05-19T06:15:00.604Z,18.37
2023-05-19T06:20:00.789Z,18.37
2023-05-19T06:25:03.163Z,18.92
2023-05-19T06:30:00.581Z,18.92
2023-05-19T06:35:00.612Z,18.92
2023-05-19T06:40:00.693Z,18.92
2023-05-19T06:45:00.618Z,17.89
2023-05-19T06:50:00.492Z,17.89
2023-05-19T06:55:00.774Z,17.76
2023-05-19T07:00:00.500Z,17.76
2023-05-19T07:05:00.538Z,17.76
2023-05-19T07:10:01.589Z,17.76
2023-05-19T07:15:00.449Z,17.76
2023-05-19T07:20:01.793Z,17.76
2023-05-19T07:25:03.563Z,18.4
2023-05-19T07:30:00.449Z,18.4
2023-05-19T07:35:00.609Z,18.4
2023-05-19T07:40:00.735Z,18.4
2023-05-19T07:45:00.470Z,18.4
2023-05-19T07:50:00.522Z,17.88
2023-05-19T07:55:00.844Z,17.88
2023-05-19T08:00:00.535Z,18.36
2023-05-19T08:05:00.627Z,18.36
2023-05-19T08:10:01.090Z,18.36
2023-05-19T08:15:01.793Z,18.36
2023-05-19T08:20:00.784Z,18.36
2023-05-19T08:25:04.148Z,18.36
2023-05-19T08:30:00.813Z,18.36
2023-05-19T08:35:00.575Z,18.41
2023-05-19T08:40:00.804Z,18.41
2023-05-19T08:45:00.974Z,19.02
2023-05-19T08:50:01.237Z,19.02
2023-05-19T08:55:00.540Z,19.02
2023-05-19T09:00:00.750Z,19.02
2023-05-19T09:05:01.263Z,19.02
2023-05-19T09:10:01.424Z,19.02
2023-05-19T09:15:00.607Z,19.02
2023-05-19T09:20:00.805Z,19.02
2023-05-19T09:25:03.765Z,19.02
2023-05-19T09:30:00.465Z,19.02
2023-05-19T09:35:00.588Z,19.21
2023-05-19T09:40:02.076Z,19.21
2023-05-19T09:45:00.471Z,19.21
2023-05-19T09:50:00.626Z,19.21
2023-05-19T09:55:00.722Z,19.21
2023-05-19T10:00:01.623Z,19.21
2023-05-19T10:05:01.045Z,19.21
2023-05-19T10:10:00.809Z,19.21
2023-05-19T10:15:00.651Z,18.78
2023-05-19T10:20:02.047Z,18.78
2023-05-19T10:25:03.055Z,18.78
2023-05-19T10:30:00.463Z,18.74
2023-05-19T10:35:00.534Z,18.74
2023-05-19T10:40:00.774Z,19.23
2023-05-19T10:45:00.458Z,19.23
2023-05-19T10:50:00.785Z,19.23
2023-05-19T10:55:01.956Z,19.23
2023-05-19T11:00:00.597Z,19.23
2023-05-19T11:05:00.535Z,19.23
2023-05-19T11:10:00.946Z,19.23
2023-05-19T11:15:00.532Z,19.23
2023-05-19T11:20:04.053Z,19.01
2023-05-19T11:25:03.780Z,19.05
2023-05-19T11:30:00.577Z,19.05
2023-05-19T11:35:00.454Z,19.05
2023-05-19T11:40:00.693Z,19.05
2023-05-19T11:45:00.462Z,18.91
2023-05-19T11:50:02.137Z,18.91
2023-05-19T11:55:00.798Z,19.03
2023-05-19T12:00:00.566Z,19.03
2023-05-19T12:05:00.624Z,19.54
2023-05-19T12:10:00.951Z,19.54
2023-05-19T12:15:00.546Z,19.75
2023-05-19T12:25:03.572Z,19.62
2023-05-19T12:30:00.944Z,19.85
2023-05-19T12:35:00.569Z,19.85
2023-05-19T12:40:00.640Z,19.85
2023-05-19T12:45:01.548Z,19.85
2023-05-19T12:50:00.778Z,19.85
2023-05-19T12:55:00.810Z,19.48
2023-05-19T13:00:00.620Z,19.48
2023-05-19T13:05:01.783Z,19.48
2023-05-19T13:10:00.651Z,19.48
2023-05-19T13:15:00.629Z,19.48
2023-05-19T13:25:03.529Z,18.96
2023-05-19T13:30:01.820Z,18.96
2023-05-19T13:35:00.621Z,18.96
2023-05-19T13:40:00.994Z,18.96
2023-05-19T13:45:00.509Z,18.96
2023-05-19T13:50:00.606Z,18.96
2023-05-19T13:55:00.912Z,18.96
2023-05-19T14:00:03.636Z,18.96
2023-05-19T14:05:00.504Z,18.96
2023-05-19T14:10:01.219Z,18.96
2023-05-19T14:15:00.733Z,18.86
2023-05-19T14:25:04.708Z,18.86
2023-05-19T14:30:00.566Z,18.86
2023-05-19T14:35:00.483Z,18.86
2023-05-19T14:40:01.985Z,18.86
2023-05-19T14:45:00.503Z,18.86
2023-05-19T14:50:00.555Z,18.86
2023-05-19T14:55:00.816Z,18.86
2023-05-19T15:00:00.515Z,18.86
2023-05-19T15:05:04.482Z,18.89
2023-05-19T15:10:01.159Z,18.89
2023-05-19T15:15:00.659Z,18.89
2023-05-19T15:20:00.605Z,18.89
2023-05-19T15:25:03.934Z,18.89
2023-05-19T15:30:00.614Z,18.89
2023-05-19T15:35:01.459Z,18.89
2023-05-19T15:40:01.173Z,18.89
2023-05-19T15:45:01.709Z,18.89
2023-05-19T15:50:00.595Z,18.89
2023-05-19T15:55:01.726Z,18.89
2023-05-19T16:00:00.503Z,18.72
2023-05-19T16:05:00.741Z,18.72
2023-05-19T16:10:00.820Z,18.72
2023-05-19T16:15:00.861Z,18.72
2023-05-19T16:20:00.744Z,18.26
2023-05-19T16:25:03.757Z,18.26
2023-05-19T16:30:00.854Z,18.26
2023-05-19T16:35:00.619Z,18.26
2023-05-19T16:40:00.630Z,18.26
2023-05-19T16:45:00.586Z,18.26
2023-05-19T16:50:01.484Z,18.26
2023-05-19T16:55:00.561Z,18.17
2023-05-19T17:00:03.325Z,18.17
2023-05-19T17:05:00.687Z,18.17
2023-05-19T17:10:00.753Z,18.2
2023-05-19T17:15:00.669Z,18.2
2023-05-19T17:20:00.854Z,18.2
2023-05-19T17:25:04.562Z,18.1
2023-05-19T17:30:00.504Z,18.1
2023-05-19T17:35:00.569Z,17.6
2023-05-19T17:40:00.625Z,17.6
2023-05-19T17:45:00.612Z,17.73
2023-05-19T17:50:00.530Z,17.73
2023-05-19T17:55:00.739Z,17.72
2023-05-19T18:00:00.672Z,17.72
2023-05-19T18:05:00.650Z,17.72
2023-05-19T18:10:01.456Z,17.72
2023-05-19T18:15:00.555Z,17.72
2023-05-19T18:20:00.575Z,17.72
2023-05-19T18:25:03.432Z,17.72
2023-05-19T18:30:01.152Z,17.72
2023-05-19T18:35:00.621Z,17.72
2023-05-19T18:40:00.622Z,17.55
2023-05-19T18:45:00.512Z,17.55
2023-05-19T18:50:01.046Z,17.55
2023-05-19T18:55:00.796Z,17.55
2023-05-19T19:00:00.451Z,17.55
2023-05-19T19:05:00.701Z,17.55
2023-05-19T19:10:01.328Z,17.55
2023-05-19T19:15:00.598Z,17.4
2023-05-19T19:20:01.184Z,17.4
2023-05-19T19:25:03.630Z,17.4
2023-05-19T19:30:00.516Z,17.03
2023-05-19T19:35:00.529Z,17.03
2023-05-19T19:40:00.632Z,16.89
2023-05-19T19:45:00.470Z,16.89
2023-05-19T19:50:00.626Z,16.89
2023-05-19T19:55:00.836Z,16.89
2023-05-19T20:00:00.848Z,16.89
2023-05-19T20:05:00.523Z,16.89
2023-05-19T20:10:01.194Z,16.89
2023-05-19T20:15:00.530Z,16.89
2023-05-19T20:20:00.692Z,16.89
2023-05-19T20:25:03.061Z,16.83
2023-05-19T20:30:00.466Z,16.83
2023-05-19T20:35:00.654Z,16.83
2023-05-19T20:40:00.728Z,16.83
2023-05-19T20:45:00.633Z,16.83
2023-05-19T20:50:01.725Z,16.36
2023-05-19T20:55:00.695Z,16.36
2023-05-19T21:00:00.628Z,16.28
2023-05-19T21:05:00.786Z,16.28
2023-05-19T21:10:03.784Z,16.28
2023-05-19T21:15:00.473Z,16.24
2023-05-19T21:20:00.583Z,16.24
2023-05-19T21:25:03.902Z,16.24
2023-05-19T21:30:00.479Z,16.24
2023-05-19T21:35:00.703Z,16.24
2023-05-19T21:40:00.533Z,16.24
2023-05-19T21:45:00.520Z,16.44
2023-05-19T21:50:00.540Z,16.44
2023-05-19T21:55:00.746Z,16.44
2023-05-19T22:00:00.716Z,16.51
2023-05-19T22:05:00.560Z,16.51
2023-05-19T22:10:01.454Z,16.44
2023-05-19T22:15:00.531Z,16.44
2023-05-19T22:20:01.699Z,16.44
2023-05-19T22:25:05.335Z,16.44
2023-05-19T22:30:00.926Z,15.99
2023-05-19T22:35:00.519Z,15.99
2023-05-19T22:40:00.608Z,15.99
2023-05-19T22:45:00.959Z,15.99
2023-05-19T22:50:00.541Z,15.99
2023-05-19T22:55:01.450Z,15.99
2023-05-19T23:00:00.513Z,15.99
2023-05-19T23:05:00.496Z,15.85
2023-05-19T23:10:02.854Z,15.85
2023-05-19T23:15:00.488Z,15.85
2023-05-19T23:20:00.685Z,15.85
2023-05-19T23:25:05.224Z,15.85
2023-05-19T23:30:00.582Z,15.85
2023-05-19T23:35:00.565Z,15.85
2023-05-19T23:40:00.628Z,15.85
2023-05-19T23:45:00.582Z,15.65
2023-05-19T23:50:00.453Z,15.65
2023-05-19T23:55:01.037Z,15.65
